sensor_id;sensor_type;location;lat;lon;timestamp;P1;durP1;ratioP1;P2;durP2;ratioP2
15230;SDS011;32569;51.762;8.564;2023-03-01T00:01:07;13.93;;;11.63;;
15230;SDS011;32569;51.762;8.564;2023-03-01T00:03:36;9.60;;;8.70;;
15230;SDS011;32569;51.762;8.564;2023-03-01T00:06:04;8.67;;;7.67;;
15230;SDS011;32569;51.762;8.564;2023-03-01T00:08:31;8.87;;;7.63;;
15230;SDS011;32569;51.762;8.564;2023-03-01T00:11:04;7.63;;;6.93;;
15230;SDS011;32569;51.762;8.564;2023-03-01T00:13:32;7.70;;;6.87;;
15230;SDS011;32569;51.762;8.564;2023-03-01T00:16:01;8.27;;;7.47;;
15230;SDS011;32569;51.762;8.564;2023-03-01T00:18:29;7.50;;;6.80;;
15230;SDS011;32569;51.762;8.564;2023-03-01T00:20:56;8.93;;;7.00;;
15230;SDS011;32569;51.762;8.564;2023-03-01T00:23:23;7.67;;;6.73;;
15230;SDS011;32569;51.762;8.564;2023-03-01T00:25:49;7.77;;;7.03;;
15230;SDS011;32569;51.762;8.564;2023-03-01T00:28:18;7.80;;;6.97;;
15230;SDS011;32569;51.762;8.564;2023-03-01T00:30:45;8.63;;;7.23;;
15230;SDS011;32569;51.762;8.564;2023-03-01T00:33:12;8.87;;;7.93;;
15230;SDS011;32569;51.762;8.564;2023-03-01T00:35:39;11.13;;;7.90;;
15230;SDS011;32569;51.762;8.564;2023-03-01T00:38:06;8.23;;;7.33;;
15230;SDS011;32569;51.762;8.564;2023-03-01T00:40:34;8.93;;;6.57;;
15230;SDS011;32569;51.762;8.564;2023-03-01T00:43:01;7.63;;;6.83;;
15230;SDS011;32569;51.762;8.564;2023-03-01T00:45:30;9.40;;;7.90;;
15230;SDS011;32569;51.762;8.564;2023-03-01T00:47:58;8.50;;;7.60;;
15230;SDS011;32569;51.762;8.564;2023-03-01T00:50:25;7.80;;;7.00;;
15230;SDS011;32569;51.762;8.564;2023-03-01T00:52:52;9.40;;;7.80;;
15230;SDS011;32569;51.762;8.564;2023-03-01T00:55:19;9.93;;;7.87;;
15230;SDS011;32569;51.762;8.564;2023-03-01T00:57:46;9.27;;;7.97;;
15230;SDS011;32569;51.762;8.564;2023-03-01T01:00:13;9.40;;;7.80;;
15230;SDS011;32569;51.762;8.564;2023-03-01T01:02:41;8.60;;;7.40;;
15230;SDS011;32569;51.762;8.564;2023-03-01T01:05:08;9.10;;;8.10;;
15230;SDS011;32569;51.762;8.564;2023-03-01T01:07:35;8.27;;;7.43;;
15230;SDS011;32569;51.762;8.564;2023-03-01T01:10:02;9.23;;;8.33;;
15230;SDS011;32569;51.762;8.564;2023-03-01T01:12:29;10.90;;;9.80;;
15230;SDS011;32569;51.762;8.564;2023-03-01T01:14:56;21.83;;;15.60;;
15230;SDS011;32569;51.762;8.564;2023-03-01T01:17:23;10.17;;;8.97;;
15230;SDS011;32569;51.762;8.564;2023-03-01T01:19:51;9.93;;;8.50;;
15230;SDS011;32569;51.762;8.564;2023-03-01T01:22:18;11.17;;;7.87;;
15230;SDS011;32569;51.762;8.564;2023-03-01T01:24:44;10.37;;;7.77;;
15230;SDS011;32569;51.762;8.564;2023-03-01T01:27:11;10.20;;;7.43;;
15230;SDS011;32569;51.762;8.564;2023-03-01T01:29:38;8.40;;;7.53;;
15230;SDS011;32569;51.762;8.564;2023-03-01T01:32:04;8.63;;;7.50;;
15230;SDS011;32569;51.762;8.564;2023-03-01T01:34:31;9.13;;;8.17;;
15230;SDS011;32569;51.762;8.564;2023-03-01T01:37:02;8.23;;;7.43;;
15230;SDS011;32569;51.762;8.564;2023-03-01T01:39:32;9.50;;;7.60;;
15230;SDS011;32569;51.762;8.564;2023-03-01T01:42:02;8.90;;;7.97;;
15230;SDS011;32569;51.762;8.564;2023-03-01T01:44:33;8.00;;;7.20;;
15230;SDS011;32569;51.762;8.564;2023-03-01T01:47:00;10.27;;;7.53;;
15230;SDS011;32569;51.762;8.564;2023-03-01T01:49:33;8.90;;;7.30;;
15230;SDS011;32569;51.762;8.564;2023-03-01T01:52:07;9.40;;;7.17;;
15230;SDS011;32569;51.762;8.564;2023-03-01T01:54:38;8.03;;;7.20;;
15230;SDS011;32569;51.762;8.564;2023-03-01T01:57:11;7.20;;;6.50;;
15230;SDS011;32569;51.762;8.564;2023-03-01T01:59:40;9.40;;;7.33;;
15230;SDS011;32569;51.762;8.564;2023-03-01T02:02:09;7.53;;;6.83;;
15230;SDS011;32569;51.762;8.564;2023-03-01T02:04:37;8.43;;;7.10;;
15230;SDS011;32569;51.762;8.564;2023-03-01T02:07:07;8.43;;;6.93;;
15230;SDS011;32569;51.762;8.564;2023-03-01T02:09:40;7.40;;;6.67;;
15230;SDS011;32569;51.762;8.564;2023-03-01T02:12:10;9.63;;;7.00;;
15230;SDS011;32569;51.762;8.564;2023-03-01T02:14:36;7.90;;;7.00;;
15230;SDS011;32569;51.762;8.564;2023-03-01T02:17:03;8.73;;;7.10;;
15230;SDS011;32569;51.762;8.564;2023-03-01T02:19:36;8.67;;;7.00;;
15230;SDS011;32569;51.762;8.564;2023-03-01T02:22:13;8.57;;;7.67;;
15230;SDS011;32569;51.762;8.564;2023-03-01T02:24:46;8.73;;;7.40;;
15230;SDS011;32569;51.762;8.564;2023-03-01T02:27:19;8.80;;;7.53;;
15230;SDS011;32569;51.762;8.564;2023-03-01T02:29:51;9.23;;;7.67;;
15230;SDS011;32569;51.762;8.564;2023-03-01T02:32:18;8.70;;;7.53;;
15230;SDS011;32569;51.762;8.564;2023-03-01T02:34:50;9.10;;;7.40;;
15230;SDS011;32569;51.762;8.564;2023-03-01T02:37:17;9.97;;;8.77;;
15230;SDS011;32569;51.762;8.564;2023-03-01T02:39:50;9.47;;;8.50;;
15230;SDS011;32569;51.762;8.564;2023-03-01T02:42:23;7.90;;;6.93;;
15230;SDS011;32569;51.762;8.564;2023-03-01T02:44:55;8.20;;;6.87;;
15230;SDS011;32569;51.762;8.564;2023-03-01T02:47:22;8.50;;;7.60;;
15230;SDS011;32569;51.762;8.564;2023-03-01T02:49:49;8.87;;;7.30;;
15230;SDS011;32569;51.762;8.564;2023-03-01T02:52:34;8.37;;;7.20;;
15230;SDS011;32569;51.762;8.564;2023-03-01T02:55:12;8.23;;;7.40;;
15230;SDS011;32569;51.762;8.564;2023-03-01T02:57:42;8.30;;;7.37;;
15230;SDS011;32569;51.762;8.564;2023-03-01T03:00:12;8.80;;;7.90;;
15230;SDS011;32569;51.762;8.564;2023-03-01T03:02:44;7.73;;;6.93;;
15230;SDS011;32569;51.762;8.564;2023-03-01T03:05:12;9.77;;;7.50;;
15230;SDS011;32569;51.762;8.564;2023-03-01T03:07:42;8.33;;;7.53;;
15230;SDS011;32569;51.762;8.564;2023-03-01T03:10:10;10.90;;;7.73;;
15230;SDS011;32569;51.762;8.564;2023-03-01T03:12:39;10.23;;;7.07;;
15230;SDS011;32569;51.762;8.564;2023-03-01T03:15:07;8.53;;;6.87;;
15230;SDS011;32569;51.762;8.564;2023-03-01T03:17:40;8.70;;;7.30;;
15230;SDS011;32569;51.762;8.564;2023-03-01T03:20:08;7.50;;;6.57;;
15230;SDS011;32569;51.762;8.564;2023-03-01T03:22:37;10.73;;;7.27;;
15230;SDS011;32569;51.762;8.564;2023-03-01T03:25:07;8.70;;;6.90;;
15230;SDS011;32569;51.762;8.564;2023-03-01T03:27:35;9.20;;;7.33;;
15230;SDS011;32569;51.762;8.564;2023-03-01T03:30:02;8.90;;;7.10;;
15230;SDS011;32569;51.762;8.564;2023-03-01T03:32:33;7.27;;;6.50;;
15230;SDS011;32569;51.762;8.564;2023-03-01T03:35:05;10.80;;;7.33;;
15230;SDS011;32569;51.762;8.564;2023-03-01T03:37:34;8.00;;;6.70;;
15230;SDS011;32569;51.762;8.564;2023-03-01T03:40:28;7.37;;;6.63;;
15230;SDS011;32569;51.762;8.564;2023-03-01T03:42:57;7.47;;;6.47;;
15230;SDS011;32569;51.762;8.564;2023-03-01T03:45:23;8.80;;;6.83;;
15230;SDS011;32569;51.762;8.564;2023-03-01T03:47:50;7.43;;;6.50;;
15230;SDS011;32569;51.762;8.564;2023-03-01T03:50:18;8.27;;;6.83;;
15230;SDS011;32569;51.762;8.564;2023-03-01T03:52:45;8.33;;;7.17;;
15230;SDS011;32569;51.762;8.564;2023-03-01T03:55:12;7.67;;;6.60;;
15230;SDS011;32569;51.762;8.564;2023-03-01T03:57:39;8.77;;;7.67;;
15230;SDS011;32569;51.762;8.564;2023-03-01T04:00:08;8.73;;;7.27;;
15230;SDS011;32569;51.762;8.564;2023-03-01T04:02:37;8.47;;;7.17;;
15230;SDS011;32569;51.762;8.564;2023-03-01T04:05:08;9.87;;;7.20;;
15230;SDS011;32569;51.762;8.564;2023-03-01T04:07:38;8.83;;;7.33;;
15230;SDS011;32569;51.762;8.564;2023-03-01T04:10:05;9.67;;;7.43;;
15230;SDS011;32569;51.762;8.564;2023-03-01T04:12:34;8.03;;;6.87;;
15230;SDS011;32569;51.762;8.564;2023-03-01T04:15:01;8.83;;;7.63;;
15230;SDS011;32569;51.762;8.564;2023-03-01T04:17:37;8.63;;;7.47;;
15230;SDS011;32569;51.762;8.564;2023-03-01T04:20:04;9.17;;;7.50;;
15230;SDS011;32569;51.762;8.564;2023-03-01T04:22:33;10.17;;;7.63;;
15230;SDS011;32569;51.762;8.564;2023-03-01T04:25:01;10.33;;;8.00;;
15230;SDS011;32569;51.762;8.564;2023-03-01T04:27:30;8.90;;;7.77;;
15230;SDS011;32569;51.762;8.564;2023-03-01T04:29:58;9.00;;;7.50;;
15230;SDS011;32569;51.762;8.564;2023-03-01T04:32:24;9.07;;;7.50;;
15230;SDS011;32569;51.762;8.564;2023-03-01T04:34:51;10.33;;;8.07;;
15230;SDS011;32569;51.762;8.564;2023-03-01T04:37:18;9.03;;;7.67;;
15230;SDS011;32569;51.762;8.564;2023-03-01T04:39:44;10.33;;;8.43;;
15230;SDS011;32569;51.762;8.564;2023-03-01T04:42:13;8.40;;;7.50;;
15230;SDS011;32569;51.762;8.564;2023-03-01T04:44:40;10.33;;;7.87;;
15230;SDS011;32569;51.762;8.564;2023-03-01T04:47:07;9.97;;;7.90;;
15230;SDS011;32569;51.762;8.564;2023-03-01T04:49:34;9.20;;;7.77;;
15230;SDS011;32569;51.762;8.564;2023-03-01T04:52:00;12.40;;;8.17;;
15230;SDS011;32569;51.762;8.564;2023-03-01T04:54:27;9.83;;;7.70;;
15230;SDS011;32569;51.762;8.564;2023-03-01T04:56:59;9.57;;;7.90;;
15230;SDS011;32569;51.762;8.564;2023-03-01T04:59:27;10.10;;;7.23;;
15230;SDS011;32569;51.762;8.564;2023-03-01T05:01:57;8.17;;;7.37;;
15230;SDS011;32569;51.762;8.564;2023-03-01T05:04:25;8.57;;;7.77;;
15230;SDS011;32569;51.762;8.564;2023-03-01T05:06:52;8.90;;;7.60;;
15230;SDS011;32569;51.762;8.564;2023-03-01T05:09:19;9.77;;;7.27;;
15230;SDS011;32569;51.762;8.564;2023-03-01T05:11:46;9.30;;;7.63;;
15230;SDS011;32569;51.762;8.564;2023-03-01T05:14:12;8.80;;;7.90;;
15230;SDS011;32569;51.762;8.564;2023-03-01T05:16:40;9.17;;;7.47;;
15230;SDS011;32569;51.762;8.564;2023-03-01T05:19:07;8.67;;;7.50;;
15230;SDS011;32569;51.762;8.564;2023-03-01T05:21:40;9.40;;;7.90;;
15230;SDS011;32569;51.762;8.564;2023-03-01T05:24:21;9.07;;;7.60;;
15230;SDS011;32569;51.762;8.564;2023-03-01T05:26:48;10.50;;;8.20;;
15230;SDS011;32569;51.762;8.564;2023-03-01T05:29:16;10.97;;;7.80;;
15230;SDS011;32569;51.762;8.564;2023-03-01T05:31:45;9.70;;;8.47;;
15230;SDS011;32569;51.762;8.564;2023-03-01T05:34:12;9.87;;;8.53;;
15230;SDS011;32569;51.762;8.564;2023-03-01T05:36:38;8.07;;;6.93;;
15230;SDS011;32569;51.762;8.564;2023-03-01T05:39:05;9.07;;;7.97;;
15230;SDS011;32569;51.762;8.564;2023-03-01T05:41:31;11.23;;;8.83;;
15230;SDS011;32569;51.762;8.564;2023-03-01T05:43:58;12.40;;;8.97;;
15230;SDS011;32569;51.762;8.564;2023-03-01T05:46:25;9.10;;;8.10;;
15230;SDS011;32569;51.762;8.564;2023-03-01T05:48:53;11.23;;;8.27;;
15230;SDS011;32569;51.762;8.564;2023-03-01T05:51:20;9.17;;;7.60;;
15230;SDS011;32569;51.762;8.564;2023-03-01T05:53:47;8.27;;;7.47;;
15230;SDS011;32569;51.762;8.564;2023-03-01T05:56:13;9.33;;;7.93;;
15230;SDS011;32569;51.762;8.564;2023-03-01T05:58:40;10.80;;;8.90;;
15230;SDS011;32569;51.762;8.564;2023-03-01T06:01:10;12.27;;;9.00;;
15230;SDS011;32569;51.762;8.564;2023-03-01T06:03:38;11.20;;;8.60;;
15230;SDS011;32569;51.762;8.564;2023-03-01T06:06:06;10.87;;;9.30;;
15230;SDS011;32569;51.762;8.564;2023-03-01T06:08:33;9.93;;;8.53;;
15230;SDS011;32569;51.762;8.564;2023-03-01T06:10:59;11.53;;;9.43;;
15230;SDS011;32569;51.762;8.564;2023-03-01T06:13:26;15.17;;;11.40;;
15230;SDS011;32569;51.762;8.564;2023-03-01T06:15:52;15.30;;;10.33;;
15230;SDS011;32569;51.762;8.564;2023-03-01T06:18:19;15.00;;;10.73;;
15230;SDS011;32569;51.762;8.564;2023-03-01T06:20:52;12.03;;;8.73;;
15230;SDS011;32569;51.762;8.564;2023-03-01T06:23:20;10.47;;;8.77;;
15230;SDS011;32569;51.762;8.564;2023-03-01T06:25:47;16.57;;;8.63;;
15230;SDS011;32569;51.762;8.564;2023-03-01T06:28:14;10.83;;;8.03;;
15230;SDS011;32569;51.762;8.564;2023-03-01T06:30:41;8.87;;;7.20;;
15230;SDS011;32569;51.762;8.564;2023-03-01T06:33:07;10.73;;;7.77;;
15230;SDS011;32569;51.762;8.564;2023-03-01T06:35:34;11.47;;;7.43;;
15230;SDS011;32569;51.762;8.564;2023-03-01T06:38:01;9.73;;;7.20;;
15230;SDS011;32569;51.762;8.564;2023-03-01T06:40:30;11.13;;;7.60;;
15230;SDS011;32569;51.762;8.564;2023-03-01T06:42:57;9.17;;;7.83;;
15230;SDS011;32569;51.762;8.564;2023-03-01T06:45:25;9.97;;;8.03;;
15230;SDS011;32569;51.762;8.564;2023-03-01T06:48:02;12.37;;;8.37;;
15230;SDS011;32569;51.762;8.564;2023-03-01T06:50:30;11.63;;;7.30;;
15230;SDS011;32569;51.762;8.564;2023-03-01T06:52:57;10.30;;;7.37;;
15230;SDS011;32569;51.762;8.564;2023-03-01T06:55:24;9.50;;;8.03;;
15230;SDS011;32569;51.762;8.564;2023-03-01T06:57:54;10.37;;;7.07;;
15230;SDS011;32569;51.762;8.564;2023-03-01T07:00:22;10.30;;;7.83;;
15230;SDS011;32569;51.762;8.564;2023-03-01T07:02:49;10.87;;;7.23;;
15230;SDS011;32569;51.762;8.564;2023-03-01T07:05:16;9.37;;;7.50;;
15230;SDS011;32569;51.762;8.564;2023-03-01T07:07:43;15.30;;;10.43;;
15230;SDS011;32569;51.762;8.564;2023-03-01T07:10:10;10.50;;;8.00;;
15230;SDS011;32569;51.762;8.564;2023-03-01T07:12:37;8.77;;;7.60;;
15230;SDS011;32569;51.762;8.564;2023-03-01T07:15:09;12.30;;;8.00;;
15230;SDS011;32569;51.762;8.564;2023-03-01T07:17:36;10.20;;;7.37;;
15230;SDS011;32569;51.762;8.564;2023-03-01T07:20:04;9.43;;;7.40;;
15230;SDS011;32569;51.762;8.564;2023-03-01T07:22:34;10.05;;;8.27;;
15230;SDS011;32569;51.762;8.564;2023-03-01T07:25:01;12.37;;;7.77;;
15230;SDS011;32569;51.762;8.564;2023-03-01T07:27:27;10.57;;;8.27;;
15230;SDS011;32569;51.762;8.564;2023-03-01T07:29:54;10.70;;;8.30;;
15230;SDS011;32569;51.762;8.564;2023-03-01T07:32:22;9.43;;;8.40;;
15230;SDS011;32569;51.762;8.564;2023-03-01T07:34:48;9.77;;;8.13;;
15230;SDS011;32569;51.762;8.564;2023-03-01T07:37:16;8.80;;;7.93;;
15230;SDS011;32569;51.762;8.564;2023-03-01T07:39:46;11.87;;;8.30;;
15230;SDS011;32569;51.762;8.564;2023-03-01T07:42:12;11.13;;;8.77;;
15230;SDS011;32569;51.762;8.564;2023-03-01T07:44:39;11.80;;;9.07;;
15230;SDS011;32569;51.762;8.564;2023-03-01T07:47:05;10.47;;;8.50;;
15230;SDS011;32569;51.762;8.564;2023-03-01T07:49:33;10.43;;;8.27;;
15230;SDS011;32569;51.762;8.564;2023-03-01T07:52:03;13.20;;;9.20;;
15230;SDS011;32569;51.762;8.564;2023-03-01T07:54:30;12.63;;;8.33;;
15230;SDS011;32569;51.762;8.564;2023-03-01T07:56:57;13.47;;;9.40;;
15230;SDS011;32569;51.762;8.564;2023-03-01T07:59:23;8.90;;;8.00;;
15230;SDS011;32569;51.762;8.564;2023-03-01T08:01:53;8.87;;;7.97;;
15230;SDS011;32569;51.762;8.564;2023-03-01T08:04:20;9.13;;;7.00;;
15230;SDS011;32569;51.762;8.564;2023-03-01T08:06:49;10.20;;;7.73;;
15230;SDS011;32569;51.762;8.564;2023-03-01T08:09:16;12.20;;;7.83;;
15230;SDS011;32569;51.762;8.564;2023-03-01T08:11:42;12.20;;;8.67;;
15230;SDS011;32569;51.762;8.564;2023-03-01T08:14:09;8.57;;;7.57;;
15230;SDS011;32569;51.762;8.564;2023-03-01T08:16:36;9.63;;;7.83;;
15230;SDS011;32569;51.762;8.564;2023-03-01T08:19:04;10.37;;;8.33;;
15230;SDS011;32569;51.762;8.564;2023-03-01T08:21:31;10.07;;;8.23;;
15230;SDS011;32569;51.762;8.564;2023-03-01T08:24:01;12.00;;;8.20;;
15230;SDS011;32569;51.762;8.564;2023-03-01T08:26:27;9.33;;;8.30;;
15230;SDS011;32569;51.762;8.564;2023-03-01T08:28:55;10.37;;;7.57;;
15230;SDS011;32569;51.762;8.564;2023-03-01T08:31:22;10.00;;;7.40;;
15230;SDS011;32569;51.762;8.564;2023-03-01T08:33:51;11.63;;;7.57;;
15230;SDS011;32569;51.762;8.564;2023-03-01T08:36:20;8.33;;;7.30;;
15230;SDS011;32569;51.762;8.564;2023-03-01T08:38:47;9.73;;;7.73;;
15230;SDS011;32569;51.762;8.564;2023-03-01T08:41:16;8.73;;;7.83;;
15230;SDS011;32569;51.762;8.564;2023-03-01T08:43:43;10.40;;;8.07;;
15230;SDS011;32569;51.762;8.564;2023-03-01T08:46:10;13.70;;;8.10;;
15230;SDS011;32569;51.762;8.564;2023-03-01T08:48:37;10.80;;;7.20;;
15230;SDS011;32569;51.762;8.564;2023-03-01T08:51:09;13.37;;;8.23;;
15230;SDS011;32569;51.762;8.564;2023-03-01T08:53:36;11.13;;;8.03;;
15230;SDS011;32569;51.762;8.564;2023-03-01T08:56:03;7.80;;;7.10;;
15230;SDS011;32569;51.762;8.564;2023-03-01T08:58:31;9.43;;;7.50;;
15230;SDS011;32569;51.762;8.564;2023-03-01T09:00:58;9.87;;;7.80;;
15230;SDS011;32569;51.762;8.564;2023-03-01T09:03:25;8.67;;;7.23;;
15230;SDS011;32569;51.762;8.564;2023-03-01T09:05:52;8.93;;;7.33;;
15230;SDS011;32569;51.762;8.564;2023-03-01T09:08:25;8.60;;;7.07;;
15230;SDS011;32569;51.762;8.564;2023-03-01T09:10:52;10.50;;;7.40;;
15230;SDS011;32569;51.762;8.564;2023-03-01T09:13:18;8.87;;;7.03;;
15230;SDS011;32569;51.762;8.564;2023-03-01T09:15:46;11.13;;;6.90;;
15230;SDS011;32569;51.762;8.564;2023-03-01T09:18:13;10.30;;;7.33;;
15230;SDS011;32569;51.762;8.564;2023-03-01T09:20:39;9.73;;;7.23;;
15230;SDS011;32569;51.762;8.564;2023-03-01T09:23:06;7.27;;;6.00;;
15230;SDS011;32569;51.762;8.564;2023-03-01T09:25:33;8.10;;;6.50;;
15230;SDS011;32569;51.762;8.564;2023-03-01T09:28:00;9.47;;;7.50;;
15230;SDS011;32569;51.762;8.564;2023-03-01T09:30:27;8.47;;;6.77;;
15230;SDS011;32569;51.762;8.564;2023-03-01T09:32:55;8.50;;;6.77;;
15230;SDS011;32569;51.762;8.564;2023-03-01T09:35:22;8.37;;;7.10;;
15230;SDS011;32569;51.762;8.564;2023-03-01T09:37:49;7.93;;;6.40;;
15230;SDS011;32569;51.762;8.564;2023-03-01T09:40:17;9.60;;;6.77;;
15230;SDS011;32569;51.762;8.564;2023-03-01T09:42:51;9.27;;;6.77;;
15230;SDS011;32569;51.762;8.564;2023-03-01T09:45:25;9.47;;;6.83;;
15230;SDS011;32569;51.762;8.564;2023-03-01T09:47:56;8.47;;;6.60;;
15230;SDS011;32569;51.762;8.564;2023-03-01T09:50:23;10.73;;;7.10;;
15230;SDS011;32569;51.762;8.564;2023-03-01T09:52:54;8.33;;;6.30;;
15230;SDS011;32569;51.762;8.564;2023-03-01T09:55:30;9.23;;;6.47;;
15230;SDS011;32569;51.762;8.564;2023-03-01T09:58:00;6.53;;;5.80;;
15230;SDS011;32569;51.762;8.564;2023-03-01T10:00:41;9.00;;;6.07;;
15230;SDS011;32569;51.762;8.564;2023-03-01T10:03:13;9.20;;;5.83;;
15230;SDS011;32569;51.762;8.564;2023-03-01T10:05:49;7.70;;;6.60;;
15230;SDS011;32569;51.762;8.564;2023-03-01T10:08:33;8.23;;;6.60;;
15230;SDS011;32569;51.762;8.564;2023-03-01T10:11:04;7.67;;;6.77;;
15230;SDS011;32569;51.762;8.564;2023-03-01T10:13:42;6.97;;;6.07;;
15230;SDS011;32569;51.762;8.564;2023-03-01T10:16:15;7.20;;;6.07;;
15230;SDS011;32569;51.762;8.564;2023-03-01T10:18:47;8.53;;;5.70;;
15230;SDS011;32569;51.762;8.564;2023-03-01T10:21:19;6.43;;;5.43;;
15230;SDS011;32569;51.762;8.564;2023-03-01T10:23:46;6.27;;;5.43;;
15230;SDS011;32569;51.762;8.564;2023-03-01T10:26:21;7.30;;;5.60;;
15230;SDS011;32569;51.762;8.564;2023-03-01T10:28:58;7.30;;;5.20;;
15230;SDS011;32569;51.762;8.564;2023-03-01T10:31:32;6.23;;;5.00;;
15230;SDS011;32569;51.762;8.564;2023-03-01T10:34:08;6.17;;;5.07;;
15230;SDS011;32569;51.762;8.564;2023-03-01T10:36:38;6.27;;;5.53;;
15230;SDS011;32569;51.762;8.564;2023-03-01T10:39:10;6.60;;;5.43;;
15230;SDS011;32569;51.762;8.564;2023-03-01T10:41:44;8.40;;;5.57;;
15230;SDS011;32569;51.762;8.564;2023-03-01T10:44:34;6.60;;;5.17;;
15230;SDS011;32569;51.762;8.564;2023-03-01T10:47:03;5.43;;;4.80;;
15230;SDS011;32569;51.762;8.564;2023-03-01T10:49:31;7.23;;;5.27;;
15230;SDS011;32569;51.762;8.564;2023-03-01T10:51:58;9.80;;;5.40;;
15230;SDS011;32569;51.762;8.564;2023-03-01T10:54:43;12.67;;;6.20;;
15230;SDS011;32569;51.762;8.564;2023-03-01T10:57:24;7.17;;;5.27;;
15230;SDS011;32569;51.762;8.564;2023-03-01T11:00:00;9.87;;;5.50;;
15230;SDS011;32569;51.762;8.564;2023-03-01T11:02:40;6.10;;;4.93;;
15230;SDS011;32569;51.762;8.564;2023-03-01T11:05:16;7.80;;;5.67;;
15230;SDS011;32569;51.762;8.564;2023-03-01T11:07:48;13.57;;;6.43;;
15230;SDS011;32569;51.762;8.564;2023-03-01T11:10:17;7.87;;;5.77;;
15230;SDS011;32569;51.762;8.564;2023-03-01T11:12:45;6.70;;;5.30;;
15230;SDS011;32569;51.762;8.564;2023-03-01T11:15:19;7.13;;;6.00;;
15230;SDS011;32569;51.762;8.564;2023-03-01T11:17:48;8.17;;;5.77;;
15230;SDS011;32569;51.762;8.564;2023-03-01T11:20:18;6.17;;;4.70;;
15230;SDS011;32569;51.762;8.564;2023-03-01T11:22:52;6.90;;;5.20;;
15230;SDS011;32569;51.762;8.564;2023-03-01T11:25:23;8.60;;;5.87;;
15230;SDS011;32569;51.762;8.564;2023-03-01T11:27:52;8.97;;;5.97;;
15230;SDS011;32569;51.762;8.564;2023-03-01T11:30:21;7.73;;;5.37;;
15230;SDS011;32569;51.762;8.564;2023-03-01T11:33:01;7.47;;;5.73;;
15230;SDS011;32569;51.762;8.564;2023-03-01T11:35:36;8.03;;;5.27;;
15230;SDS011;32569;51.762;8.564;2023-03-01T11:38:20;5.80;;;5.20;;
15230;SDS011;32569;51.762;8.564;2023-03-01T11:40:49;7.33;;;5.70;;
15230;SDS011;32569;51.762;8.564;2023-03-01T11:43:27;8.20;;;5.73;;
15230;SDS011;32569;51.762;8.564;2023-03-01T11:46:11;6.70;;;5.47;;
15230;SDS011;32569;51.762;8.564;2023-03-01T11:49:15;6.47;;;5.13;;
15230;SDS011;32569;51.762;8.564;2023-03-01T11:52:06;10.10;;;5.60;;
15230;SDS011;32569;51.762;8.564;2023-03-01T11:54:45;6.73;;;5.23;;
15230;SDS011;32569;51.762;8.564;2023-03-01T11:57:27;8.47;;;5.40;;
15230;SDS011;32569;51.762;8.564;2023-03-01T12:00:12;9.53;;;6.00;;
15230;SDS011;32569;51.762;8.564;2023-03-01T12:02:54;6.93;;;5.13;;
15230;SDS011;32569;51.762;8.564;2023-03-01T12:05:54;5.70;;;5.03;;
15230;SDS011;32569;51.762;8.564;2023-03-01T12:08:35;5.90;;;5.30;;
15230;SDS011;32569;51.762;8.564;2023-03-01T12:11:09;7.67;;;5.77;;
15230;SDS011;32569;51.762;8.564;2023-03-01T12:16:53;6.67;;;6.00;;
15230;SDS011;32569;51.762;8.564;2023-03-01T12:19:32;6.37;;;5.40;;
15230;SDS011;32569;51.762;8.564;2023-03-01T12:22:10;7.17;;;5.03;;
15230;SDS011;32569;51.762;8.564;2023-03-01T12:25:12;6.68;;;5.72;;
15230;SDS011;32569;51.762;8.564;2023-03-01T12:27:50;6.47;;;5.43;;
15230;SDS011;32569;51.762;8.564;2023-03-01T12:30:32;5.33;;;4.60;;
15230;SDS011;32569;51.762;8.564;2023-03-01T12:33:12;6.30;;;5.07;;
15230;SDS011;32569;51.762;8.564;2023-03-01T12:35:49;5.80;;;5.03;;
15230;SDS011;32569;51.762;8.564;2023-03-01T12:38:37;6.03;;;5.20;;
15230;SDS011;32569;51.762;8.564;2023-03-01T12:41:13;6.33;;;5.10;;
15230;SDS011;32569;51.762;8.564;2023-03-01T12:43:58;5.40;;;4.60;;
15230;SDS011;32569;51.762;8.564;2023-03-01T12:46:38;5.63;;;4.70;;
15230;SDS011;32569;51.762;8.564;2023-03-01T12:49:20;9.60;;;5.53;;
15230;SDS011;32569;51.762;8.564;2023-03-01T12:51:54;5.10;;;4.60;;
15230;SDS011;32569;51.762;8.564;2023-03-01T12:54:26;6.63;;;4.90;;
15230;SDS011;32569;51.762;8.564;2023-03-01T12:56:56;6.20;;;5.13;;
15230;SDS011;32569;51.762;8.564;2023-03-01T12:59:27;5.90;;;4.90;;
15230;SDS011;32569;51.762;8.564;2023-03-01T13:02:02;5.47;;;4.90;;
15230;SDS011;32569;51.762;8.564;2023-03-01T13:04:38;6.77;;;5.47;;
15230;SDS011;32569;51.762;8.564;2023-03-01T13:07:19;6.30;;;4.73;;
15230;SDS011;32569;51.762;8.564;2023-03-01T13:09:51;4.97;;;4.47;;
15230;SDS011;32569;51.762;8.564;2023-03-01T13:12:44;6.17;;;5.20;;
15230;SDS011;32569;51.762;8.564;2023-03-01T13:15:29;8.50;;;4.87;;
15230;SDS011;32569;51.762;8.564;2023-03-01T13:17:58;5.13;;;4.63;;
15230;SDS011;32569;51.762;8.564;2023-03-01T13:20:27;5.07;;;4.27;;
15230;SDS011;32569;51.762;8.564;2023-03-01T13:23:02;6.13;;;4.83;;
15230;SDS011;32569;51.762;8.564;2023-03-01T13:25:31;5.13;;;4.57;;
15230;SDS011;32569;51.762;8.564;2023-03-01T13:31:07;5.97;;;5.27;;
15230;SDS011;32569;51.762;8.564;2023-03-01T13:33:44;5.63;;;4.80;;
15230;SDS011;32569;51.762;8.564;2023-03-01T13:39:29;6.03;;;5.33;;
15230;SDS011;32569;51.762;8.564;2023-03-01T13:41:58;7.57;;;4.90;;
15230;SDS011;32569;51.762;8.564;2023-03-01T13:44:28;5.67;;;4.90;;
15230;SDS011;32569;51.762;8.564;2023-03-01T13:46:58;5.47;;;4.57;;
15230;SDS011;32569;51.762;8.564;2023-03-01T13:49:33;4.93;;;4.37;;
15230;SDS011;32569;51.762;8.564;2023-03-01T13:52:13;5.57;;;4.97;;
15230;SDS011;32569;51.762;8.564;2023-03-01T13:54:57;7.07;;;5.23;;
15230;SDS011;32569;51.762;8.564;2023-03-01T13:57:28;5.73;;;5.10;;
15230;SDS011;32569;51.762;8.564;2023-03-01T14:00:01;4.63;;;4.23;;
15230;SDS011;32569;51.762;8.564;2023-03-01T14:02:29;5.00;;;4.50;;
15230;SDS011;32569;51.762;8.564;2023-03-01T14:04:56;5.10;;;4.47;;
15230;SDS011;32569;51.762;8.564;2023-03-01T14:07:24;4.93;;;4.40;;
15230;SDS011;32569;51.762;8.564;2023-03-01T14:09:54;5.83;;;4.17;;
15230;SDS011;32569;51.762;8.564;2023-03-01T14:12:26;5.27;;;4.73;;
15230;SDS011;32569;51.762;8.564;2023-03-01T14:15:08;8.60;;;4.90;;
15230;SDS011;32569;51.762;8.564;2023-03-01T14:17:46;5.40;;;4.30;;
15230;SDS011;32569;51.762;8.564;2023-03-01T14:20:33;4.57;;;4.10;;
15230;SDS011;32569;51.762;8.564;2023-03-01T14:25:45;5.13;;;4.40;;
15230;SDS011;32569;51.762;8.564;2023-03-01T14:28:14;6.07;;;4.50;;
15230;SDS011;32569;51.762;8.564;2023-03-01T14:30:45;4.63;;;3.93;;
15230;SDS011;32569;51.762;8.564;2023-03-01T14:33:18;5.97;;;4.13;;
15230;SDS011;32569;51.762;8.564;2023-03-01T14:35:54;5.43;;;4.30;;
15230;SDS011;32569;51.762;8.564;2023-03-01T14:38:23;5.67;;;4.50;;
15230;SDS011;32569;51.762;8.564;2023-03-01T14:40:56;5.10;;;4.33;;
15230;SDS011;32569;51.762;8.564;2023-03-01T14:43:25;5.90;;;4.30;;
15230;SDS011;32569;51.762;8.564;2023-03-01T14:45:53;5.37;;;4.70;;
15230;SDS011;32569;51.762;8.564;2023-03-01T14:48:20;4.80;;;4.13;;
15230;SDS011;32569;51.762;8.564;2023-03-01T14:50:47;7.03;;;4.40;;
15230;SDS011;32569;51.762;8.564;2023-03-01T14:53:16;5.37;;;4.40;;
15230;SDS011;32569;51.762;8.564;2023-03-01T14:55:45;6.03;;;5.07;;
15230;SDS011;32569;51.762;8.564;2023-03-01T14:58:15;4.93;;;4.20;;
15230;SDS011;32569;51.762;8.564;2023-03-01T15:00:46;6.97;;;4.87;;
15230;SDS011;32569;51.762;8.564;2023-03-01T15:03:20;5.57;;;4.97;;
15230;SDS011;32569;51.762;8.564;2023-03-01T15:05:51;5.63;;;4.73;;
15230;SDS011;32569;51.762;8.564;2023-03-01T15:08:19;5.23;;;4.43;;
15230;SDS011;32569;51.762;8.564;2023-03-01T15:10:59;5.33;;;4.83;;
15230;SDS011;32569;51.762;8.564;2023-03-01T15:13:29;5.07;;;4.57;;
15230;SDS011;32569;51.762;8.564;2023-03-01T15:18:45;6.87;;;5.40;;
15230;SDS011;32569;51.762;8.564;2023-03-01T15:21:17;5.63;;;5.13;;